Time;durP1;ratioP1;P1;durP2;ratioP2;P2;SDS_P1;SDS_P2;PMS_P1;PMS_P2;Temp;Humidity;BMP_temperature;BMP_pressure;BME280_temperature;BME280_humidity;BME280_pressure;Samples;Min_cycle;Max_cycle;Signal;HPM_P1;HPM_P2
2023/09/25 00:02:00;;;;;;;0.00;0.00;;;11.20;99.90;;;;;;5091345;28;20578;-66
2023/09/25 00:04:28;;;;;;;0.00;0.00;;;11.20;99.90;;;;;;5091976;28;20211;-66
2023/09/25 00:06:54;;;;;;;0.00;0.00;;;11.20;99.90;;;;;;5092195;28;20325;-66
2023/09/25 00:09:19;;;;;;;0.00;0.00;;;11.10;99.90;;;;;;5088332;28;20655;-66
2023/09/25 00:11:45;;;;;;;0.00;0.00;;;11.10;99.90;;;;;;5091784;28;20302;-66
2023/09/25 00:14:11;;;;;;;0.00;0.00;;;11.10;99.90;;;;;;5091860;28;20176;-66
2023/09/25 00:16:37;;;;;;;0.00;0.00;;;11.00;99.90;;;;;;5092170;28;20677;-66
2023/09/25 00:19:04;;;;;;;0.00;0.00;;;11.00;99.90;;;;;;5091741;28;20180;-66
2023/09/25 00:21:30;;;;;;;0.00;0.00;;;11.00;99.90;;;;;;5092256;28;20670;-66
2023/09/25 00:23:55;;;;;;;0.00;0.00;;;11.00;99.90;;;;;;5091872;28;20208;-66
2023/09/25 00:26:21;;;;;;;0.00;0.00;;;10.90;99.90;;;;;;5090556;28;20635;-66
2023/09/25 00:28:46;;;;;;;0.00;0.00;;;10.90;99.90;;;;;;5092059;28;20266;-66
2023/09/25 00:31:12;;;;;;;0.00;0.00;;;10.90;99.90;;;;;;5091741;28;20220;-66
2023/09/25 00:33:38;;;;;;;0.00;0.00;;;10.90;99.90;;;;;;5090775;28;20233;-66
2023/09/25 00:36:04;;;;;;;0.00;0.00;;;10.80;99.90;;;;;;5091938;28;20188;-66
2023/09/25 00:38:30;;;;;;;0.00;0.00;;;10.80;99.90;;;;;;5090781;28;20307;-65
2023/09/25 00:40:55;;;;;;;0.00;0.00;;;10.70;99.90;;;;;;5091810;28;20199;-66
2023/09/25 00:43:21;;;;;;;0.00;0.00;;;10.70;99.90;;;;;;5091687;28;20604;-66
2023/09/25 00:45:47;;;;;;;0.00;0.00;;;10.60;99.90;;;;;;5090441;28;20188;-66
2023/09/25 00:48:26;;;;;;;0.00;0.00;;;10.60;99.90;;;;;;5091502;28;20180;-66
2023/09/25 00:50:56;;;;;;;0.00;0.00;;;10.50;99.90;;;;;;5086268;28;20686;-66
2023/09/25 00:53:24;;;;;;;0.10;0.10;;;10.60;99.90;;;;;;5091463;28;20184;-66
2023/09/25 00:55:50;;;;;;;0.00;0.00;;;10.50;99.90;;;;;;5091298;28;20188;-65
2023/09/25 00:58:17;;;;;;;0.00;0.00;;;10.50;99.90;;;;;;5091525;28;20516;-66
2023/09/25 01:00:43;;;;;;;0.00;0.00;;;10.40;99.90;;;;;;5091192;28;20904;-65
2023/09/25 01:03:08;;;;;;;0.00;0.00;;;10.40;99.90;;;;;;5091073;28;20218;-66
2023/09/25 01:05:37;;;;;;;0.00;0.00;;;10.40;99.90;;;;;;5091124;28;20188;-66
2023/09/25 01:08:03;;;;;;;0.00;0.00;;;10.30;99.90;;;;;;5091429;28;20271;-66
2023/09/25 01:10:28;;;;;;;0.00;0.00;;;10.30;99.90;;;;;;5091252;28;20348;-66
2023/09/25 01:12:54;;;;;;;0.00;0.00;;;10.20;99.90;;;;;;5091318;28;20535;-66
2023/09/25 01:15:20;;;;;;;0.00;0.00;;;10.20;99.90;;;;;;5091119;28;20195;-66
2023/09/25 01:17:46;;;;;;;0.00;0.00;;;10.10;99.90;;;;;;5091087;28;20172;-66
2023/09/25 01:20:17;;;;;;;0.00;0.00;;;10.10;99.90;;;;;;5105540;28;20171;-66
2023/09/25 01:22:44;;;;;;;0.00;0.00;;;10.10;99.90;;;;;;5090958;28;20237;-66
2023/09/25 01:25:11;;;;;;;0.00;0.00;;;10.10;99.90;;;;;;5090723;28;20215;-67
2023/09/25 01:27:42;;;;;;;0.05;0.05;;;10.00;99.90;;;;;;5090531;28;20191;-67
2023/09/25 01:30:11;;;;;;;0.00;0.00;;;10.00;99.90;;;;;;5087222;28;20209;-67
2023/09/25 01:32:37;;;;;;;0.00;0.00;;;10.00;99.90;;;;;;5091133;28;20176;-67
2023/09/25 01:35:26;;;;;;;0.00;0.00;;;10.00;99.90;;;;;;5091420;28;20164;-66
2023/09/25 01:37:57;;;;;;;0.00;0.00;;;10.00;99.90;;;;;;5090514;28;20234;-67
2023/09/25 01:40:24;;;;;;;0.20;0.20;;;10.00;99.90;;;;;;5090904;28;20211;-66
2023/09/25 01:42:49;;;;;;;0.10;0.10;;;10.00;99.90;;;;;;5091170;28;20570;-66
2023/09/25 01:45:18;;;;;;;0.28;0.10;;;10.00;99.90;;;;;;5091249;28;20203;-66
2023/09/25 01:47:50;;;;;;;0.00;0.00;;;9.90;99.90;;;;;;5091021;28;20666;-66
2023/09/25 01:50:28;;;;;;;0.10;0.10;;;9.90;99.90;;;;;;5091085;28;20686;-66
2023/09/25 01:52:55;;;;;;;0.00;0.00;;;9.80;99.90;;;;;;5091137;28;20260;-67
2023/09/25 01:55:21;;;;;;;0.00;0.00;;;9.80;99.90;;;;;;5091081;28;20538;-67
2023/09/25 01:57:47;;;;;;;0.00;0.00;;;9.80;99.90;;;;;;5091172;28;20179;-66
2023/09/25 02:00:13;;;;;;;0.00;0.00;;;9.80;99.90;;;;;;5091100;28;20194;-67
2023/09/25 02:02:40;;;;;;;0.00;0.00;;;9.80;99.90;;;;;;5090034;28;20325;-67
2023/09/25 02:05:06;;;;;;;0.00;0.00;;;9.70;99.90;;;;;;5094931;28;20257;-67
2023/09/25 02:07:32;;;;;;;0.00;0.00;;;9.70;99.90;;;;;;5094580;28;20658;-67
2023/09/25 02:09:59;;;;;;;0.00;0.00;;;9.60;99.90;;;;;;5094490;28;20215;-67
2023/09/25 02:12:24;;;;;;;0.00;0.00;;;9.50;99.90;;;;;;5093476;28;20551;-67
2023/09/25 02:14:52;;;;;;;0.20;0.20;;;9.50;99.90;;;;;;5094400;28;20172;-67
2023/09/25 02:17:18;;;;;;;0.00;0.00;;;9.50;99.90;;;;;;5094415;28;20925;-66
2023/09/25 02:19:44;;;;;;;0.00;0.00;;;9.50;99.90;;;;;;5094251;28;20524;-67
2023/09/25 02:22:10;;;;;;;0.00;0.00;;;9.50;99.90;;;;;;5094188;28;20186;-66
2023/09/25 02:24:37;;;;;;;0.00;0.00;;;9.50;99.90;;;;;;5093751;28;20255;-66
2023/09/25 02:27:02;;;;;;;0.00;0.00;;;9.40;99.90;;;;;;5086102;28;20195;-66
2023/09/25 02:29:29;;;;;;;0.00;0.00;;;9.40;99.90;;;;;;5093979;28;20584;-66
2023/09/25 02:31:55;;;;;;;0.00;0.00;;;9.40;99.90;;;;;;5093533;28;20208;-66
2023/09/25 02:34:21;;;;;;;0.00;0.00;;;9.40;99.90;;;;;;5093812;28;20180;-66
2023/09/25 02:36:46;;;;;;;0.00;0.00;;;9.40;99.90;;;;;;5093654;28;20226;-66
2023/09/25 02:39:13;;;;;;;0.00;0.00;;;9.40;99.90;;;;;;5094209;28;20780;-66
2023/09/25 02:41:39;;;;;;;0.00;0.00;;;9.30;99.90;;;;;;5093581;28;20184;-66
2023/09/25 02:44:05;;;;;;;0.00;0.00;;;9.30;99.90;;;;;;5093978;28;20186;-66
2023/09/25 02:46:31;;;;;;;0.00;0.00;;;9.20;99.90;;;;;;5093500;28;20188;-66
2023/09/25 02:48:56;;;;;;;0.00;0.00;;;9.20;99.90;;;;;;5093436;28;20169;-66
2023/09/25 02:51:22;;;;;;;0.00;0.00;;;9.20;99.90;;;;;;5093271;28;20212;-66
2023/09/25 02:53:48;;;;;;;0.00;0.00;;;9.10;99.90;;;;;;5093265;28;20172;-67
2023/09/25 02:56:13;;;;;;;0.00;0.00;;;9.10;99.90;;;;;;5093244;28;20633;-66
2023/09/25 02:58:39;;;;;;;0.10;0.10;;;9.10;99.90;;;;;;5098626;28;20176;-66
2023/09/25 03:01:04;;;;;;;0.10;0.10;;;9.00;99.90;;;;;;5092716;28;20768;-66
2023/09/25 03:03:30;;;;;;;0.00;0.00;;;9.00;99.90;;;;;;5093197;28;20171;-66
2023/09/25 03:05:56;;;;;;;0.00;0.00;;;9.00;99.90;;;;;;5092963;28;20184;-66
2023/09/25 03:08:22;;;;;;;0.00;0.00;;;8.90;99.90;;;;;;5093168;28;20176;-65
2023/09/25 03:10:47;;;;;;;0.00;0.00;;;8.90;99.90;;;;;;5093056;28;20207;-65
2023/09/25 03:13:13;;;;;;;0.03;0.03;;;8.90;99.90;;;;;;5091389;28;20259;-65
2023/09/25 03:15:38;;;;;;;0.00;0.00;;;8.90;99.90;;;;;;5093162;28;20233;-66
2023/09/25 03:18:04;;;;;;;0.00;0.00;;;8.90;99.90;;;;;;5091978;28;20188;-66
2023/09/25 03:20:30;;;;;;;0.00;0.00;;;8.90;99.90;;;;;;5093316;28;20186;-64
2023/09/25 03:22:56;;;;;;;0.00;0.00;;;8.90;99.90;;;;;;5096402;28;20535;-64
2023/09/25 03:25:22;;;;;;;0.00;0.00;;;8.90;99.90;;;;;;5092868;28;20263;-63
2023/09/25 03:27:49;;;;;;;0.00;0.00;;;8.80;99.90;;;;;;5092905;28;20188;-63
2023/09/25 03:30:14;;;;;;;0.00;0.00;;;8.80;99.90;;;;;;5092438;28;20243;-63
2023/09/25 03:32:40;;;;;;;0.00;0.00;;;8.80;99.90;;;;;;5092824;28;20267;-64
2023/09/25 03:35:06;;;;;;;0.00;0.00;;;8.80;99.90;;;;;;5092654;28;20184;-63
2023/09/25 03:37:31;;;;;;;0.00;0.00;;;8.80;99.90;;;;;;5092614;28;20220;-65
2023/09/25 03:39:57;;;;;;;0.00;0.00;;;8.80;99.90;;;;;;5093231;28;20184;-64
2023/09/25 03:42:22;;;;;;;0.00;0.00;;;8.80;99.90;;;;;;5093051;28;20512;-62
2023/09/25 03:44:50;;;;;;;0.15;0.15;;;8.80;99.90;;;;;;5092602;28;20187;-62
2023/09/25 03:47:15;;;;;;;0.00;0.00;;;8.70;99.90;;;;;;5092952;28;20179;-64
2023/09/25 03:49:42;;;;;;;0.00;0.00;;;8.70;99.90;;;;;;5108107;28;20179;-64
2023/09/25 03:52:07;;;;;;;0.00;0.00;;;8.60;99.90;;;;;;5113337;28;20194;-64
2023/09/25 03:54:33;;;;;;;0.00;0.00;;;8.60;99.90;;;;;;5096843;28;20184;-64
2023/09/25 03:56:58;;;;;;;0.00;0.00;;;8.60;99.90;;;;;;5092271;28;20192;-64
2023/09/25 03:59:24;;;;;;;0.00;0.00;;;8.60;99.90;;;;;;5092672;28;20184;-63
2023/09/25 04:01:49;;;;;;;0.03;0.03;;;8.60;99.90;;;;;;5092406;28;20176;-63
2023/09/25 04:04:15;;;;;;;0.00;0.00;;;8.60;99.90;;;;;;5092908;28;20222;-62
2023/09/25 04:06:41;;;;;;;0.00;0.00;;;8.60;99.90;;;;;;5092169;28;20180;-63
2023/09/25 04:09:07;;;;;;;0.00;0.00;;;8.60;99.90;;;;;;5091356;28;20653;-64
2023/09/25 04:11:33;;;;;;;0.00;0.00;;;8.60;99.90;;;;;;5091734;28;20872;-63
2023/09/25 04:14:00;;;;;;;0.00;0.00;;;8.60;99.90;;;;;;5092328;28;20203;-63
2023/09/25 04:16:28;;;;;;;0.00;0.00;;;8.50;99.90;;;;;;5092521;28;20277;-64
2023/09/25 04:18:53;;;;;;;0.00;0.00;;;8.50;99.90;;;;;;5092357;28;20263;-64
2023/09/25 04:21:19;;;;;;;0.00;0.00;;;8.40;99.90;;;;;;5092496;28;20251;-64
2023/09/25 04:23:45;;;;;;;0.00;0.00;;;8.30;99.90;;;;;;5092032;28;20184;-64
2023/09/25 04:26:12;;;;;;;0.00;0.00;;;8.20;99.90;;;;;;5091812;28;20642;-64
2023/09/25 04:28:38;;;;;;;0.00;0.00;;;8.20;99.90;;;;;;5092349;28;20176;-64
2023/09/25 04:31:05;;;;;;;0.00;0.00;;;8.20;99.90;;;;;;5092012;28;20220;-64
2023/09/25 04:33:32;;;;;;;0.00;0.00;;;8.10;99.90;;;;;;5092364;28;20191;-64
2023/09/25 04:35:59;;;;;;;0.00;0.00;;;8.10;99.90;;;;;;5092412;28;20168;-63
2023/09/25 04:38:28;;;;;;;0.00;0.00;;;8.20;99.90;;;;;;5092041;28;20702;-63
2023/09/25 04:40:54;;;;;;;0.00;0.00;;;8.20;99.90;;;;;;5091972;28;20184;-64
2023/09/25 04:43:20;;;;;;;0.00;0.00;;;8.20;99.90;;;;;;5091684;28;20176;-63
2023/09/25 04:45:46;;;;;;;0.38;0.10;;;8.10;99.90;;;;;;5092104;28;20180;-63
2023/09/25 04:48:13;;;;;;;0.00;0.00;;;8.10;99.90;;;;;;5091424;28;20172;-63
2023/09/25 04:50:40;;;;;;;0.00;0.00;;;8.20;99.90;;;;;;5091646;28;20199;-64
2023/09/25 04:53:08;;;;;;;0.00;0.00;;;8.20;99.90;;;;;;5091734;28;20268;-63
2023/09/25 04:55:36;;;;;;;0.10;0.10;;;8.20;99.90;;;;;;5091666;28;20607;-65
2023/09/25 04:58:02;;;;;;;0.00;0.00;;;8.30;99.90;;;;;;5091815;28;20233;-64
2023/09/25 05:00:27;;;;;;;0.00;0.00;;;8.30;99.90;;;;;;5091798;28;20180;-64
2023/09/25 05:02:55;;;;;;;0.00;0.00;;;8.30;99.90;;;;;;5091511;28;20180;-64
2023/09/25 05:05:22;;;;;;;0.00;0.00;;;8.30;99.90;;;;;;5091464;28;20172;-64
2023/09/25 05:07:49;;;;;;;0.00;0.00;;;8.40;99.90;;;;;;5091642;28;20176;-64
2023/09/25 05:10:18;;;;;;;0.00;0.00;;;8.40;99.90;;;;;;5091514;28;20204;-64
2023/09/25 05:12:44;;;;;;;0.00;0.00;;;8.40;99.90;;;;;;5091380;28;20179;-64
2023/09/25 05:15:11;;;;;;;0.00;0.00;;;8.50;99.90;;;;;;5091641;28;20598;-64
2023/09/25 05:17:41;;;;;;;0.00;0.00;;;8.50;99.90;;;;;;5091438;28;20529;-64
2023/09/25 05:20:12;;;;;;;0.00;0.00;;;8.50;99.90;;;;;;5091413;28;20180;-64
2023/09/25 05:22:38;;;;;;;0.00;0.00;;;8.50;99.90;;;;;;5091590;28;20168;-64
2023/09/25 05:25:07;;;;;;;0.00;0.00;;;8.50;99.90;;;;;;5089793;28;20634;-64
2023/09/25 05:27:37;;;;;;;0.00;0.00;;;8.50;99.90;;;;;;5091323;28;20196;-64
2023/09/25 05:30:09;;;;;;;0.00;0.00;;;8.50;99.90;;;;;;5091312;28;20259;-64
2023/09/25 05:32:38;;;;;;;0.00;0.00;;;8.50;99.90;;;;;;5091307;28;20184;-64
2023/09/25 05:35:04;;;;;;;0.00;0.00;;;8.50;99.90;;;;;;5090925;28;20187;-64
2023/09/25 05:37:30;;;;;;;0.00;0.00;;;8.50;99.90;;;;;;5090766;28;20224;-64
2023/09/25 05:39:56;;;;;;;0.00;0.00;;;8.50;99.90;;;;;;5094885;28;20502;-64
2023/09/25 05:42:21;;;;;;;0.08;0.08;;;8.50;99.90;;;;;;5095073;28;20176;-65
2023/09/25 05:44:47;;;;;;;0.00;0.00;;;8.50;99.90;;;;;;5094996;28;20624;-64
2023/09/25 05:47:12;;;;;;;0.00;0.00;;;8.60;99.90;;;;;;5095038;28;20179;-64
2023/09/25 05:49:38;;;;;;;0.00;0.00;;;8.60;99.90;;;;;;5095122;28;20172;-64
2023/09/25 05:52:04;;;;;;;0.00;0.00;;;8.60;99.90;;;;;;5094948;28;20532;-64
2023/09/25 05:54:31;;;;;;;0.00;0.00;;;8.60;99.90;;;;;;5095007;28;20623;-64
2023/09/25 05:56:56;;;;;;;0.00;0.00;;;8.70;99.90;;;;;;5094836;28;20682;-64
2023/09/25 05:59:22;;;;;;;0.00;0.00;;;8.70;99.90;;;;;;5094698;28;20255;-64
2023/09/25 06:01:48;;;;;;;0.00;0.00;;;8.80;99.90;;;;;;5094894;28;20164;-64
2023/09/25 06:04:15;;;;;;;0.00;0.00;;;8.80;99.90;;;;;;5095272;28;20203;-64
2023/09/25 06:06:41;;;;;;;0.00;0.00;;;8.90;99.90;;;;;;5095098;28;20179;-64
2023/09/25 06:09:08;;;;;;;0.00;0.00;;;8.90;99.90;;;;;;5093937;28;20263;-64
2023/09/25 06:11:38;;;;;;;0.00;0.00;;;9.00;99.90;;;;;;5094956;28;20645;-65
2023/09/25 06:14:04;;;;;;;0.00;0.00;;;9.00;99.90;;;;;;5094966;28;20172;-65
2023/09/25 06:16:30;;;;;;;0.00;0.00;;;9.20;99.90;;;;;;5095011;28;20206;-64
2023/09/25 06:18:56;;;;;;;0.00;0.00;;;9.30;99.90;;;;;;5094878;28;20204;-64
2023/09/25 06:21:21;;;;;;;0.00;0.00;;;9.50;99.90;;;;;;5094753;28;20212;-64
2023/09/25 06:23:49;;;;;;;0.00;0.00;;;9.80;99.90;;;;;;5094709;28;20255;-64
2023/09/25 06:26:15;;;;;;;0.00;0.00;;;10.20;99.90;;;;;;5094689;28;20183;-64
2023/09/25 06:28:42;;;;;;;0.00;0.00;;;10.70;99.90;;;;;;5093205;28;20181;-64
2023/09/25 06:31:08;;;;;;;0.00;0.00;;;11.20;99.90;;;;;;5094524;28;20283;-64
2023/09/25 06:33:33;;;;;;;0.00;0.00;;;11.80;99.90;;;;;;5094409;28;20208;-64
2023/09/25 06:35:59;;;;;;;0.00;0.00;;;12.30;99.90;;;;;;5094376;28;20183;-63
2023/09/25 06:38:25;;;;;;;0.00;0.00;;;12.90;99.90;;;;;;5093360;28;20302;-64
2023/09/25 06:40:51;;;;;;;0.00;0.00;;;13.40;99.90;;;;;;5093137;28;20184;-64
2023/09/25 06:43:16;;;;;;;0.00;0.00;;;13.90;99.90;;;;;;5093085;28;20184;-64
2023/09/25 06:45:43;;;;;;;0.00;0.00;;;14.40;99.90;;;;;;5092926;28;20302;-64
2023/09/25 06:48:08;;;;;;;0.00;0.00;;;14.90;99.90;;;;;;5093160;28;20548;-64
2023/09/25 06:50:34;;;;;;;0.00;0.00;;;15.30;99.90;;;;;;5092567;28;20200;-64
2023/09/25 06:52:59;;;;;;;0.00;0.00;;;15.70;99.90;;;;;;5092987;28;20194;-64
2023/09/25 06:55:25;;;;;;;0.00;0.00;;;16.00;99.90;;;;;;5093164;28;20569;-64
2023/09/25 06:57:51;;;;;;;0.00;0.00;;;16.30;99.90;;;;;;5093120;28;20180;-65
2023/09/25 07:00:18;;;;;;;0.00;0.00;;;16.60;99.90;;;;;;5093181;28;20190;-65
2023/09/25 07:02:44;;;;;;;0.00;0.00;;;16.90;99.00;;;;;;5092877;28;20207;-65
2023/09/25 07:05:09;;;;;;;0.05;0.05;;;17.20;98.40;;;;;;5092970;28;20216;-65
2023/09/25 07:07:38;;;;;;;0.00;0.00;;;17.60;98.10;;;;;;5092896;28;20651;-65
2023/09/25 07:10:06;;;;;;;0.00;0.00;;;17.90;97.20;;;;;;5092714;28;20177;-65
2023/09/25 07:12:33;;;;;;;0.00;0.00;;;18.20;96.70;;;;;;5092847;28;20182;-65
2023/09/25 07:15:02;;;;;;;0.00;0.00;;;18.50;95.70;;;;;;5092835;28;20251;-65
2023/09/25 07:17:28;;;;;;;0.00;0.00;;;18.60;94.90;;;;;;5092714;28;20173;-65
2023/09/25 07:19:57;;;;;;;0.00;0.00;;;18.90;94.40;;;;;;5092545;28;20191;-65
2023/09/25 07:22:27;;;;;;;0.00;0.00;;;19.20;94.00;;;;;;5092704;28;20176;-65
2023/09/25 07:24:53;;;;;;;0.00;0.00;;;19.50;93.20;;;;;;5092533;28;20180;-65
2023/09/25 07:27:19;;;;;;;0.00;0.00;;;19.70;93.20;;;;;;5092739;28;20552;-65
2023/09/25 07:29:45;;;;;;;0.00;0.00;;;20.00;92.80;;;;;;5091453;28;20261;-65
2023/09/25 07:32:12;;;;;;;0.00;0.00;;;20.30;92.20;;;;;;5092617;28;20219;-65
2023/09/25 07:34:42;;;;;;;0.00;0.00;;;20.50;91.30;;;;;;5092575;28;20175;-65
2023/09/25 07:37:08;;;;;;;0.00;0.00;;;20.90;90.60;;;;;;5054953;28;1032735;-65
2023/09/25 07:39:35;;;;;;;0.00;0.00;;;21.20;89.70;;;;;;5093451;28;20225;-65
2023/09/25 07:42:01;;;;;;;0.00;0.00;;;21.40;88.50;;;;;;5093393;28;20201;-65
2023/09/25 07:44:27;;;;;;;0.00;0.00;;;21.60;86.80;;;;;;5093328;28;20545;-65
2023/09/25 07:46:57;;;;;;;0.00;0.00;;;21.80;85.80;;;;;;5093315;28;20172;-65
2023/09/25 07:49:23;;;;;;;0.00;0.00;;;21.90;84.40;;;;;;5093282;28;20204;-65
2023/09/25 07:51:49;;;;;;;0.00;0.00;;;22.10;85.40;;;;;;5093061;28;20721;-65
2023/09/25 07:54:15;;;;;;;0.00;0.00;;;22.30;83.60;;;;;;5093174;28;20539;-64
2023/09/25 07:56:41;;;;;;;0.00;0.00;;;22.40;82.80;;;;;;5092883;28;20251;-64
2023/09/25 07:59:08;;;;;;;0.00;0.00;;;22.40;80.00;;;;;;5093055;28;20255;-65
2023/09/25 08:01:34;;;;;;;0.00;0.00;;;22.40;80.80;;;;;;5092173;28;20172;-65
2023/09/25 08:04:00;;;;;;;0.00;0.00;;;22.60;81.60;;;;;;5092682;28;20180;-65
2023/09/25 08:06:27;;;;;;;0.00;0.00;;;22.80;80.20;;;;;;5092895;28;20274;-64
2023/09/25 08:08:53;;;;;;;0.00;0.00;;;23.00;79.10;;;;;;5092702;28;20237;-64
2023/09/25 08:11:19;;;;;;;0.00;0.00;;;23.10;78.40;;;;;;5091509;28;20246;-64
2023/09/25 08:13:44;;;;;;;0.00;0.00;;;23.20;78.50;;;;;;5091478;28;20200;-64
2023/09/25 08:16:10;;;;;;;0.00;0.00;;;23.40;76.80;;;;;;5092488;28;20172;-64
2023/09/25 08:18:36;;;;;;;0.00;0.00;;;23.60;77.30;;;;;;5092690;28;20180;-64
2023/09/25 08:21:01;;;;;;;0.00;0.00;;;23.70;77.40;;;;;;5092412;28;20643;-64
2023/09/25 08:23:28;;;;;;;0.00;0.00;;;23.80;76.10;;;;;;5092496;28;20272;-64
2023/09/25 08:25:54;;;;;;;0.00;0.00;;;24.10;75.60;;;;;;5092357;28;20775;-64
2023/09/25 08:28:19;;;;;;;0.00;0.00;;;24.20;74.70;;;;;;5092436;28;20236;-64
2023/09/25 08:30:45;;;;;;;0.00;0.00;;;24.30;74.60;;;;;;5092350;28;20212;-64
2023/09/25 08:33:11;;;;;;;0.00;0.00;;;24.40;73.50;;;;;;5092522;28;20187;-64
2023/09/25 08:35:37;;;;;;;0.00;0.00;;;24.50;72.30;;;;;;5092393;28;20702;-64
2023/09/25 08:38:03;;;;;;;0.00;0.00;;;24.60;73.10;;;;;;5092130;28;20216;-64
2023/09/25 08:40:32;;;;;;;0.00;0.00;;;24.60;71.30;;;;;;5092239;28;20640;-64
2023/09/25 08:42:58;;;;;;;0.00;0.00;;;24.70;71.60;;;;;;5092081;28;20516;-64
2023/09/25 08:45:24;;;;;;;0.00;0.00;;;24.70;70.50;;;;;;5092022;28;20658;-65
2023/09/25 08:47:49;;;;;;;0.00;0.00;;;24.60;71.70;;;;;;5092099;28;20184;-64
2023/09/25 08:50:15;;;;;;;0.00;0.00;;;24.60;72.30;;;;;;5092117;28;20275;-64
2023/09/25 08:52:41;;;;;;;0.00;0.00;;;24.50;73.80;;;;;;5091926;28;20202;-64
2023/09/25 08:55:08;;;;;;;0.10;0.10;;;24.60;71.10;;;;;;5091988;28;20172;-64
2023/09/25 08:57:35;;;;;;;0.00;0.00;;;24.70;71.00;;;;;;5091949;28;20172;-65
2023/09/25 09:00:14;;;;;;;0.00;0.00;;;24.70;71.10;;;;;;5091833;28;20835;-64
2023/09/25 09:02:43;;;;;;;0.00;0.00;;;24.70;70.30;;;;;;5091637;28;20218;-64
2023/09/25 09:05:13;;;;;;;0.00;0.00;;;24.60;69.40;;;;;;5091926;28;20168;-65
2023/09/25 09:08:00;;;;;;;0.00;0.00;;;24.30;70.80;;;;;;5091790;28;20183;-64
2023/09/25 09:10:33;;;;;;;0.00;0.00;;;24.30;72.00;;;;;;5091553;28;20556;-64
2023/09/25 09:12:59;;;;;;;0.00;0.00;;;24.30;70.80;;;;;;5090563;28;20251;-64
2023/09/25 09:15:26;;;;;;;0.00;0.00;;;24.20;70.00;;;;;;5091690;28;20263;-65
2023/09/25 09:17:53;;;;;;;0.00;0.00;;;24.00;70.40;;;;;;5091676;28;20182;-64
2023/09/25 09:20:20;;;;;;;0.00;0.00;;;23.90;72.30;;;;;;5091703;28;20190;-64
2023/09/25 09:22:52;;;;;;;0.00;0.00;;;24.10;72.70;;;;;;5091490;28;20186;-64
2023/09/25 09:25:24;;;;;;;0.00;0.00;;;24.10;72.20;;;;;;5091530;28;20184;-64
2023/09/25 09:27:50;;;;;;;0.00;0.00;;;24.00;71.40;;;;;;5091605;28;20172;-64
2023/09/25 09:30:23;;;;;;;0.10;0.05;;;24.10;71.90;;;;;;5091505;28;20573;-64
2023/09/25 09:32:52;;;;;;;0.00;0.00;;;23.90;71.60;;;;;;5091450;28;20177;-63
2023/09/25 09:35:24;;;;;;;0.00;0.00;;;23.70;72.20;;;;;;5091470;28;20160;-64
2023/09/25 09:37:52;;;;;;;0.00;0.00;;;23.70;72.20;;;;;;5091430;28;20215;-64
2023/09/25 09:40:21;;;;;;;0.00;0.00;;;23.80;72.30;;;;;;5091489;28;20172;-64
2023/09/25 09:42:51;;;;;;;0.00;0.00;;;23.70;72.20;;;;;;5091358;28;20176;-64
2023/09/25 09:45:21;;;;;;;0.00;0.00;;;23.60;71.90;;;;;;5091363;28;20215;-64
2023/09/25 09:47:49;;;;;;;0.00;0.00;;;23.50;72.80;;;;;;5091346;28;20183;-64
2023/09/25 09:50:28;;;;;;;0.00;0.00;;;23.50;73.10;;;;;;5091270;28;20645;-64
2023/09/25 09:52:55;;;;;;;0.00;0.00;;;23.60;74.10;;;;;;5091215;28;20180;-64
2023/09/25 09:55:21;;;;;;;0.00;0.00;;;23.80;72.60;;;;;;5091223;28;20187;-64
2023/09/25 09:57:50;;;;;;;0.00;0.00;;;23.70;71.60;;;;;;5091202;28;20664;-64
2023/09/25 10:00:16;;;;;;;0.00;0.00;;;23.70;72.50;;;;;;5091312;28;20176;-64
2023/09/25 10:02:43;;;;;;;0.00;0.00;;;23.80;70.80;;;;;;5091295;28;20233;-65
2023/09/25 10:05:13;;;;;;;0.00;0.00;;;23.80;71.70;;;;;;5091315;28;20251;-64
2023/09/25 10:08:10;;;;;;;0.00;0.00;;;23.80;70.70;;;;;;5089715;28;20183;-65
2023/09/25 10:10:40;;;;;;;0.00;0.00;;;23.70;72.30;;;;;;5090193;28;20208;-65
2023/09/25 10:13:25;;;;;;;0.00;0.00;;;23.80;70.30;;;;;;5090528;28;20301;-63
2023/09/25 10:15:59;;;;;;;0.00;0.00;;;23.90;71.00;;;;;;5089145;28;20183;-64
2023/09/25 10:18:28;;;;;;;0.00;0.00;;;24.10;71.90;;;;;;5090010;28;20214;-64
2023/09/25 10:21:08;;;;;;;0.00;0.00;;;24.30;70.90;;;;;;5090853;28;20175;-63
2023/09/25 10:23:34;;;;;;;0.00;0.00;;;24.30;68.80;;;;;;5090672;28;20216;-64
2023/09/25 10:26:02;;;;;;;0.00;0.00;;;24.20;70.20;;;;;;5094501;28;20188;-64
2023/09/25 10:28:41;;;;;;;0.00;0.00;;;24.20;69.80;;;;;;5094689;28;20195;-64
2023/09/25 10:31:21;;;;;;;0.00;0.00;;;24.20;69.40;;;;;;5094686;28;20211;-64
2023/09/25 10:33:55;;;;;;;0.00;0.00;;;24.10;68.60;;;;;;5094601;28;20172;-65
2023/09/25 10:36:20;;;;;;;0.00;0.00;;;24.00;68.50;;;;;;5094529;28;20191;-64
2023/09/25 10:38:54;;;;;;;0.00;0.00;;;23.80;68.80;;;;;;5094397;28;20255;-64
2023/09/25 10:41:22;;;;;;;0.00;0.00;;;23.80;69.90;;;;;;5094408;28;20635;-63
2023/09/25 10:43:48;;;;;;;0.00;0.00;;;23.80;69.90;;;;;;5094347;28;20237;-63
2023/09/25 10:46:14;;;;;;;0.00;0.00;;;23.70;68.80;;;;;;5094393;28;20172;-63
2023/09/25 10:48:39;;;;;;;0.00;0.00;;;23.60;68.00;;;;;;5094083;28;20203;-64
2023/09/25 10:51:06;;;;;;;0.00;0.00;;;23.40;67.90;;;;;;5094142;28;20766;-63
2023/09/25 10:53:33;;;;;;;0.00;0.00;;;23.40;68.10;;;;;;5094109;28;20267;-64
2023/09/25 10:55:58;;;;;;;0.00;0.00;;;23.50;67.90;;;;;;5094223;28;20258;-63
2023/09/25 10:58:25;;;;;;;0.00;0.00;;;23.50;67.90;;;;;;5094167;28;20267;-63
2023/09/25 11:00:51;;;;;;;0.00;0.00;;;23.60;67.60;;;;;;5094036;28;20570;-64
2023/09/25 11:03:16;;;;;;;0.00;0.00;;;23.50;67.90;;;;;;5094173;28;20181;-65
2023/09/25 11:05:43;;;;;;;0.00;0.00;;;23.60;66.80;;;;;;5093871;28;20176;-64
2023/09/25 11:08:15;;;;;;;0.00;0.00;;;23.70;66.70;;;;;;5093907;28;20176;-63
2023/09/25 11:10:41;;;;;;;0.00;0.00;;;23.80;66.50;;;;;;5093700;28;20211;-64
2023/09/25 11:13:06;;;;;;;0.00;0.00;;;23.70;66.50;;;;;;5093924;28;20176;-64
2023/09/25 11:15:38;;;;;;;0.17;0.17;;;23.70;66.70;;;;;;5093851;28;20176;-64
2023/09/25 11:18:06;;;;;;;0.00;0.00;;;23.80;66.80;;;;;;5093760;28;20505;-64
2023/09/25 11:20:33;;;;;;;0.00;0.00;;;23.90;66.50;;;;;;5093769;28;20168;-64
2023/09/25 11:23:09;;;;;;;0.00;0.00;;;24.10;66.80;;;;;;5093589;28;20164;-64
2023/09/25 11:25:41;;;;;;;0.00;0.00;;;24.20;65.70;;;;;;5093565;28;20267;-64
2023/09/25 11:28:07;;;;;;;0.00;0.00;;;24.20;64.60;;;;;;5093562;28;20271;-64
2023/09/25 11:30:33;;;;;;;0.00;0.00;;;24.20;65.00;;;;;;5093522;28;20560;-64
2023/09/25 11:33:06;;;;;;;0.00;0.00;;;24.20;64.90;;;;;;5093430;28;20521;-64
2023/09/25 11:35:34;;;;;;;0.00;0.00;;;24.30;65.10;;;;;;5092286;28;20531;-65
2023/09/25 11:38:11;;;;;;;0.00;0.00;;;24.40;64.70;;;;;;5093027;28;20232;-63
2023/09/25 11:40:38;;;;;;;0.00;0.00;;;24.60;63.90;;;;;;5093345;28;20214;-63
2023/09/25 11:43:05;;;;;;;0.00;0.00;;;24.70;63.60;;;;;;5093177;28;20164;-64
2023/09/25 11:45:31;;;;;;;0.00;0.00;;;24.70;62.40;;;;;;5093220;28;20180;-64
2023/09/25 11:47:57;;;;;;;0.00;0.00;;;24.60;62.00;;;;;;5093120;28;20176;-64
2023/09/25 11:50:22;;;;;;;0.00;0.00;;;24.50;61.80;;;;;;5093026;28;20223;-63
2023/09/25 11:52:48;;;;;;;0.03;0.03;;;24.60;62.10;;;;;;5093120;28;20203;-64
2023/09/25 11:55:14;;;;;;;0.00;0.00;;;24.70;62.20;;;;;;5092081;28;20168;-64
2023/09/25 11:57:41;;;;;;;0.00;0.00;;;24.50;62.50;;;;;;5111836;28;20455;-64
2023/09/25 12:00:09;;;;;;;0.00;0.00;;;24.40;62.20;;;;;;5113368;28;20178;-63
2023/09/25 12:02:36;;;;;;;0.00;0.00;;;24.10;62.10;;;;;;5099143;28;20583;-64
2023/09/25 12:05:03;;;;;;;0.00;0.00;;;24.00;63.20;;;;;;5092847;28;20267;-63
2023/09/25 12:07:32;;;;;;;0.00;0.00;;;24.00;64.00;;;;;;5092795;28;20512;-64
2023/09/25 12:10:01;;;;;;;0.00;0.00;;;24.10;65.00;;;;;;5092591;28;20175;-64
2023/09/25 12:12:26;;;;;;;0.00;0.00;;;24.20;64.00;;;;;;5092924;28;20261;-64
2023/09/25 12:14:53;;;;;;;0.00;0.00;;;24.30;64.50;;;;;;5091951;28;20172;-64
2023/09/25 12:17:19;;;;;;;0.00;0.00;;;24.30;62.30;;;;;;5092588;28;20229;-65
2023/09/25 12:19:45;;;;;;;0.00;0.00;;;24.20;62.40;;;;;;5108765;28;20560;-65
2023/09/25 12:22:11;;;;;;;0.00;0.00;;;24.10;64.20;;;;;;5112742;28;20175;-64
2023/09/25 12:24:36;;;;;;;0.00;0.00;;;24.20;65.00;;;;;;5095053;28;20226;-64
2023/09/25 12:27:02;;;;;;;0.00;0.00;;;24.30;65.70;;;;;;5091043;28;20233;-64
2023/09/25 12:29:28;;;;;;;0.00;0.00;;;24.50;64.40;;;;;;5088345;28;20184;-64
2023/09/25 12:31:54;;;;;;;0.00;0.00;;;24.50;63.40;;;;;;5091767;28;20207;-65
2023/09/25 12:34:19;;;;;;;0.00;0.00;;;24.50;63.90;;;;;;5091254;28;20529;-64
2023/09/25 12:36:45;;;;;;;0.00;0.00;;;24.50;64.50;;;;;;5091110;28;20187;-65
2023/09/25 12:39:14;;;;;;;0.00;0.00;;;24.40;63.90;;;;;;5092232;28;20281;-64
2023/09/25 12:41:41;;;;;;;0.00;0.00;;;24.20;63.80;;;;;;5092230;28;20180;-64
2023/09/25 12:44:08;;;;;;;0.00;0.00;;;24.10;65.10;;;;;;5092130;28;20538;-65
2023/09/25 12:46:33;;;;;;;0.00;0.00;;;23.90;65.10;;;;;;5091925;28;20184;-64
2023/09/25 12:48:59;;;;;;;0.00;0.00;;;23.80;65.10;;;;;;5092077;28;20172;-64
2023/09/25 12:51:26;;;;;;;0.00;0.00;;;23.80;65.60;;;;;;5092162;28;20218;-64